sensor_id;sensor_type;location;lat;lon;timestamp;P1;durP1;ratioP1;P2;durP2;ratioP2
32451;SDS011;45528;52.102;5.242;2022-09-25T00:01:37;5.6;;;4.0;;
32451;SDS011;45528;52.102;5.242;2022-09-25T00:03:14;8.9;;;4.3;;
32451;SDS011;45528;52.102;5.242;2022-09-25T00:04:52;10.5;;;4.7;;
32451;SDS011;45528;52.102;5.242;2022-09-25T00:08:08;7.0;;;4.1;;
32451;SDS011;45528;52.102;5.242;2022-09-25T00:09:45;7.9;;;4.2;;
32451;SDS011;45528;52.102;5.242;2022-09-25T00:11:23;10.5;;;4.1;;
32451;SDS011;45528;52.102;5.242;2022-09-25T00:13:02;7.8;;;4.0;;
32451;SDS011;45528;52.102;5.242;2022-09-25T00:16:15;10.3;;;4.61;;
32451;SDS011;45528;52.102;5.242;2022-09-25T00:17:54;10.9;;;4.2;;
32451;SDS011;45528;52.102;5.242;2022-09-25T00:20:02;10.4;;;3.7;;
32451;SDS011;45528;52.102;5.242;2022-09-25T00:21:40;10.5;;;4.1;;
32451;SDS011;45528;52.102;5.242;2022-09-25T00:24:53;13.0;;;4.3;;
32451;SDS011;45528;52.102;5.242;2022-09-25T00:26:30;7.9;;;4.1;;
32451;SDS011;45528;52.102;5.242;2022-09-25T00:28:09;10.6;;;3.9;;
32451;SDS011;45528;52.102;5.242;2022-09-25T00:29:46;10.1;;;4.0;;
32451;SDS011;45528;52.102;5.242;2022-09-25T00:33:00;9.31;;;4.41;;
32451;SDS011;45528;52.102;5.242;2022-09-25T00:34:37;9.71;;;4.5;;
32451;SDS011;45528;52.102;5.242;2022-09-25T00:36:15;11.0;;;4.2;;
32451;SDS011;45528;52.102;5.242;2022-09-25T00:39:28;7.9;;;4.0;;
32451;SDS011;45528;52.102;5.242;2022-09-25T00:41:06;6.3;;;4.0;;
32451;SDS011;45528;52.102;5.242;2022-09-25T00:42:43;7.3;;;3.9;;
32451;SDS011;45528;52.102;5.242;2022-09-25T00:46:33;12.4;;;3.9;;
32451;SDS011;45528;52.102;5.242;2022-09-25T00:49:50;9.5;;;4.41;;
32451;SDS011;45528;52.102;5.242;2022-09-25T00:51:31;6.9;;;4.1;;
32451;SDS011;45528;52.102;5.242;2022-09-25T00:53:14;7.3;;;3.9;;
32451;SDS011;45528;52.102;5.242;2022-09-25T00:54:54;7.6;;;4.1;;
32451;SDS011;45528;52.102;5.242;2022-09-25T00:58:19;8.4;;;3.8;;
32451;SDS011;45528;52.102;5.242;2022-09-25T01:00:01;8.1;;;4.0;;
32451;SDS011;45528;52.102;5.242;2022-09-25T01:01:42;10.5;;;4.2;;
32451;SDS011;45528;52.102;5.242;2022-09-25T01:03:19;8.71;;;4.0;;
32451;SDS011;45528;52.102;5.242;2022-09-25T01:06:40;10.4;;;5.0;;
32451;SDS011;45528;52.102;5.242;2022-09-25T01:08:18;8.0;;;4.1;;
32451;SDS011;45528;52.102;5.242;2022-09-25T01:10:01;9.1;;;4.41;;
32451;SDS011;45528;52.102;5.242;2022-09-25T01:11:39;7.5;;;3.8;;
32451;SDS011;45528;52.102;5.242;2022-09-25T01:14:52;7.0;;;4.2;;
32451;SDS011;45528;52.102;5.242;2022-09-25T01:16:34;7.2;;;3.9;;
32451;SDS011;45528;52.102;5.242;2022-09-25T01:18:21;7.5;;;3.9;;
32451;SDS011;45528;52.102;5.242;2022-09-25T01:20:13;7.3;;;4.7;;
32451;SDS011;45528;52.102;5.242;2022-09-25T01:22:09;8.2;;;4.41;;
32451;SDS011;45528;52.102;5.242;2022-09-25T01:26:10;9.1;;;4.0;;
32451;SDS011;45528;52.102;5.242;2022-09-25T01:28:09;7.7;;;3.8;;
32451;SDS011;45528;52.102;5.242;2022-09-25T01:30:06;7.5;;;3.8;;
32451;SDS011;45528;52.102;5.242;2022-09-25T01:31:45;7.9;;;4.41;;
32451;SDS011;45528;52.102;5.242;2022-09-25T01:33:33;7.9;;;3.7;;
32451;SDS011;45528;52.102;5.242;2022-09-25T01:35:14;7.1;;;4.0;;
32451;SDS011;45528;52.102;5.242;2022-09-25T01:37:01;10.0;;;4.41;;
32451;SDS011;45528;52.102;5.242;2022-09-25T01:40:32;7.5;;;4.2;;
32451;SDS011;45528;52.102;5.242;2022-09-25T01:42:15;9.9;;;4.41;;
32451;SDS011;45528;52.102;5.242;2022-09-25T01:43:56;7.4;;;4.5;;
32451;SDS011;45528;52.102;5.242;2022-09-25T01:45:38;9.1;;;4.3;;
32451;SDS011;45528;52.102;5.242;2022-09-25T01:47:22;7.2;;;4.0;;
32451;SDS011;45528;52.102;5.242;2022-09-25T01:50:47;7.8;;;4.3;;
32451;SDS011;45528;52.102;5.242;2022-09-25T01:52:34;5.7;;;4.61;;
32451;SDS011;45528;52.102;5.242;2022-09-25T01:54:17;8.9;;;3.8;;
32451;SDS011;45528;52.102;5.242;2022-09-25T01:56:00;7.4;;;4.2;;
32451;SDS011;45528;52.102;5.242;2022-09-25T01:57:43;8.4;;;4.41;;
32451;SDS011;45528;52.102;5.242;2022-09-25T02:01:13;8.71;;;4.5;;
32451;SDS011;45528;52.102;5.242;2022-09-25T02:02:55;10.1;;;4.7;;
32451;SDS011;45528;52.102;5.242;2022-09-25T02:04:45;7.9;;;4.5;;
32451;SDS011;45528;52.102;5.242;2022-09-25T02:06:28;6.7;;;4.3;;
32451;SDS011;45528;52.102;5.242;2022-09-25T02:08:09;9.81;;;4.7;;
32451;SDS011;45528;52.102;5.242;2022-09-25T02:11:36;9.31;;;4.8;;
32451;SDS011;45528;52.102;5.242;2022-09-25T02:13:18;8.2;;;4.7;;
32451;SDS011;45528;52.102;5.242;2022-09-25T02:15:00;9.71;;;4.3;;
32451;SDS011;45528;52.102;5.242;2022-09-25T02:16:43;8.0;;;4.3;;
32451;SDS011;45528;52.102;5.242;2022-09-25T02:21:21;6.6;;;4.41;;
32451;SDS011;45528;52.102;5.242;2022-09-25T02:23:18;12.1;;;4.5;;
32451;SDS011;45528;52.102;5.242;2022-09-25T02:24:59;10.1;;;4.7;;
32451;SDS011;45528;52.102;5.242;2022-09-25T02:28:19;7.7;;;4.61;;
32451;SDS011;45528;52.102;5.242;2022-09-25T02:29:57;8.4;;;4.3;;
32451;SDS011;45528;52.102;5.242;2022-09-25T02:31:35;8.6;;;4.5;;
32451;SDS011;45528;52.102;5.242;2022-09-25T02:33:15;11.9;;;5.0;;
32451;SDS011;45528;52.102;5.242;2022-09-25T02:36:28;6.3;;;4.91;;
32451;SDS011;45528;52.102;5.242;2022-09-25T02:38:05;7.7;;;4.3;;
32451;SDS011;45528;52.102;5.242;2022-09-25T02:39:41;7.5;;;4.41;;
32451;SDS011;45528;52.102;5.242;2022-09-25T02:43:19;9.0;;;4.5;;
32451;SDS011;45528;52.102;5.242;2022-09-25T02:45:14;8.31;;;4.3;;
32451;SDS011;45528;52.102;5.242;2022-09-25T02:47:07;7.7;;;4.5;;
32451;SDS011;45528;52.102;5.242;2022-09-25T02:48:58;8.81;;;4.3;;
32451;SDS011;45528;52.102;5.242;2022-09-25T02:50:45;5.9;;;4.0;;
32451;SDS011;45528;52.102;5.242;2022-09-25T02:52:32;6.1;;;3.9;;
32451;SDS011;45528;52.102;5.242;2022-09-25T02:54:20;9.1;;;4.1;;
32451;SDS011;45528;52.102;5.242;2022-09-25T02:57:48;5.8;;;3.8;;
32451;SDS011;45528;52.102;5.242;2022-09-25T02:59:31;9.21;;;4.1;;
32451;SDS011;45528;52.102;5.242;2022-09-25T03:01:15;6.9;;;4.3;;
32451;SDS011;45528;52.102;5.242;2022-09-25T03:02:54;6.1;;;4.5;;
32451;SDS011;45528;52.102;5.242;2022-09-25T03:04:34;6.5;;;4.2;;
32451;SDS011;45528;52.102;5.242;2022-09-25T03:08:55;6.0;;;4.2;;
32451;SDS011;45528;52.102;5.242;2022-09-25T03:10:35;5.5;;;3.7;;
32451;SDS011;45528;52.102;5.242;2022-09-25T03:12:13;6.5;;;4.0;;
32451;SDS011;45528;52.102;5.242;2022-09-25T03:13:54;5.9;;;3.9;;
32451;SDS011;45528;52.102;5.242;2022-09-25T03:15:34;8.0;;;4.2;;
32451;SDS011;45528;52.102;5.242;2022-09-25T03:17:10;7.2;;;4.2;;
32451;SDS011;45528;52.102;5.242;2022-09-25T03:20:24;9.21;;;4.5;;
32451;SDS011;45528;52.102;5.242;2022-09-25T03:22:01;7.9;;;3.8;;
32451;SDS011;45528;52.102;5.242;2022-09-25T03:23:38;5.6;;;3.8;;
32451;SDS011;45528;52.102;5.242;2022-09-25T03:26:53;5.8;;;4.2;;
32451;SDS011;45528;52.102;5.242;2022-09-25T03:28:29;9.5;;;4.91;;
32451;SDS011;45528;52.102;5.242;2022-09-25T03:30:07;9.1;;;4.41;;
32451;SDS011;45528;52.102;5.242;2022-09-25T03:33:21;8.71;;;4.7;;
32451;SDS011;45528;52.102;5.242;2022-09-25T03:34:57;6.5;;;4.61;;
32451;SDS011;45528;52.102;5.242;2022-09-25T03:36:34;6.7;;;4.7;;
32451;SDS011;45528;52.102;5.242;2022-09-25T03:38:11;7.7;;;4.5;;
32451;SDS011;45528;52.102;5.242;2022-09-25T03:41:24;7.4;;;4.41;;
32451;SDS011;45528;52.102;5.242;2022-09-25T03:43:03;8.0;;;4.5;;
32451;SDS011;45528;52.102;5.242;2022-09-25T03:44:39;7.0;;;4.41;;
32451;SDS011;45528;52.102;5.242;2022-09-25T03:47:56;7.4;;;3.9;;
32451;SDS011;45528;52.102;5.242;2022-09-25T03:49:32;8.0;;;4.61;;
32451;SDS011;45528;52.102;5.242;2022-09-25T03:51:09;9.31;;;5.11;;
32451;SDS011;45528;52.102;5.242;2022-09-25T03:52:46;8.6;;;4.8;;
32451;SDS011;45528;52.102;5.242;2022-09-25T03:55:58;9.0;;;4.7;;
32451;SDS011;45528;52.102;5.242;2022-09-25T03:57:35;8.0;;;4.3;;
32451;SDS011;45528;52.102;5.242;2022-09-25T03:59:11;8.9;;;4.7;;
32451;SDS011;45528;52.102;5.242;2022-09-25T04:02:23;9.71;;;5.0;;
32451;SDS011;45528;52.102;5.242;2022-09-25T04:04:02;6.9;;;4.41;;
32451;SDS011;45528;52.102;5.242;2022-09-25T04:05:38;9.31;;;4.3;;
32451;SDS011;45528;52.102;5.242;2022-09-25T04:08:52;11.2;;;4.41;;
32451;SDS011;45528;52.102;5.242;2022-09-25T04:10:29;8.31;;;4.7;;
32451;SDS011;45528;52.102;5.242;2022-09-25T04:12:07;6.9;;;4.41;;
32451;SDS011;45528;52.102;5.242;2022-09-25T04:13:45;7.8;;;4.8;;
32451;SDS011;45528;52.102;5.242;2022-09-25T04:16:59;8.1;;;4.61;;
32451;SDS011;45528;52.102;5.242;2022-09-25T04:18:35;6.5;;;4.2;;
32451;SDS011;45528;52.102;5.242;2022-09-25T04:20:12;7.4;;;4.3;;
32451;SDS011;45528;52.102;5.242;2022-09-25T04:23:24;6.4;;;4.41;;
32451;SDS011;45528;52.102;5.242;2022-09-25T04:25:03;5.5;;;4.0;;
32451;SDS011;45528;52.102;5.242;2022-09-25T04:26:39;8.71;;;4.3;;
32451;SDS011;45528;52.102;5.242;2022-09-25T04:28:16;7.0;;;4.0;;
32451;SDS011;45528;52.102;5.242;2022-09-25T04:31:28;6.5;;;3.8;;
32451;SDS011;45528;52.102;5.242;2022-09-25T04:34:11;7.8;;;4.2;;
32451;SDS011;45528;52.102;5.242;2022-09-25T04:35:47;7.5;;;4.2;;
32451;SDS011;45528;52.102;5.242;2022-09-25T04:37:25;8.2;;;4.7;;
32451;SDS011;45528;52.102;5.242;2022-09-25T04:39:01;6.1;;;4.1;;
32451;SDS011;45528;52.102;5.242;2022-09-25T04:42:16;5.5;;;4.5;;
32451;SDS011;45528;52.102;5.242;2022-09-25T04:43:53;8.31;;;4.91;;
32451;SDS011;45528;52.102;5.242;2022-09-25T04:45:31;9.6;;;4.91;;
32451;SDS011;45528;52.102;5.242;2022-09-25T04:47:09;10.8;;;5.11;;
32451;SDS011;45528;52.102;5.242;2022-09-25T04:50:21;11.8;;;7.6;;
32451;SDS011;45528;52.102;5.242;2022-09-25T04:51:59;12.3;;;8.0;;
32451;SDS011;45528;52.102;5.242;2022-09-25T04:53:36;17.7;;;9.1;;
32451;SDS011;45528;52.102;5.242;2022-09-25T04:56:48;12.5;;;7.3;;
32451;SDS011;45528;52.102;5.242;2022-09-25T04:58:25;9.5;;;6.1;;
32451;SDS011;45528;52.102;5.242;2022-09-25T05:00:02;8.4;;;5.5;;
32451;SDS011;45528;52.102;5.242;2022-09-25T05:03:17;8.9;;;5.2;;
32451;SDS011;45528;52.102;5.242;2022-09-25T05:04:53;7.1;;;4.8;;
32451;SDS011;45528;52.102;5.242;2022-09-25T05:06:29;8.1;;;4.7;;
32451;SDS011;45528;52.102;5.242;2022-09-25T05:08:05;7.4;;;4.8;;
32451;SDS011;45528;52.102;5.242;2022-09-25T05:11:19;6.2;;;4.91;;
32451;SDS011;45528;52.102;5.242;2022-09-25T05:12:57;7.6;;;4.7;;
32451;SDS011;45528;52.102;5.242;2022-09-25T05:14:40;7.9;;;5.0;;
32451;SDS011;45528;52.102;5.242;2022-09-25T05:17:58;7.1;;;4.7;;
32451;SDS011;45528;52.102;5.242;2022-09-25T05:19:39;9.21;;;5.0;;
32451;SDS011;45528;52.102;5.242;2022-09-25T05:21:15;7.1;;;4.8;;
32451;SDS011;45528;52.102;5.242;2022-09-25T05:22:52;12.4;;;5.2;;
32451;SDS011;45528;52.102;5.242;2022-09-25T05:26:06;8.71;;;4.91;;
32451;SDS011;45528;52.102;5.242;2022-09-25T05:27:44;7.3;;;5.11;;
32451;SDS011;45528;52.102;5.242;2022-09-25T05:29:21;10.3;;;5.7;;
32451;SDS011;45528;52.102;5.242;2022-09-25T05:32:35;8.71;;;5.11;;
32451;SDS011;45528;52.102;5.242;2022-09-25T05:34:11;9.21;;;5.7;;
32451;SDS011;45528;52.102;5.242;2022-09-25T05:35:48;8.31;;;5.5;;
32451;SDS011;45528;52.102;5.242;2022-09-25T05:37:25;6.6;;;5.0;;
32451;SDS011;45528;52.102;5.242;2022-09-25T05:40:38;9.21;;;5.3;;
32451;SDS011;45528;52.102;5.242;2022-09-25T05:42:18;8.0;;;5.2;;
32451;SDS011;45528;52.102;5.242;2022-09-25T05:43:54;6.6;;;4.91;;
32451;SDS011;45528;52.102;5.242;2022-09-25T05:47:08;10.7;;;5.6;;
32451;SDS011;45528;52.102;5.242;2022-09-25T05:48:44;7.2;;;5.2;;
32451;SDS011;45528;52.102;5.242;2022-09-25T05:50:20;7.8;;;5.2;;
32451;SDS011;45528;52.102;5.242;2022-09-25T05:51:57;10.5;;;5.6;;
32451;SDS011;45528;52.102;5.242;2022-09-25T05:55:10;7.6;;;5.0;;
32451;SDS011;45528;52.102;5.242;2022-09-25T05:56:46;8.5;;;5.4;;
32451;SDS011;45528;52.102;5.242;2022-09-25T05:58:22;14.8;;;10.7;;
32451;SDS011;45528;52.102;5.242;2022-09-25T06:01:38;17.11;;;11.7;;
32451;SDS011;45528;52.102;5.242;2022-09-25T06:03:16;16.8;;;7.7;;
32451;SDS011;45528;52.102;5.242;2022-09-25T06:04:53;12.4;;;6.2;;
32451;SDS011;45528;52.102;5.242;2022-09-25T06:08:07;9.4;;;6.2;;
32451;SDS011;45528;52.102;5.242;2022-09-25T06:09:43;8.6;;;5.9;;
32451;SDS011;45528;52.102;5.242;2022-09-25T06:11:20;7.5;;;5.4;;
32451;SDS011;45528;52.102;5.242;2022-09-25T06:12:58;8.1;;;5.4;;
32451;SDS011;45528;52.102;5.242;2022-09-25T06:16:13;7.7;;;5.6;;
32451;SDS011;45528;52.102;5.242;2022-09-25T06:17:50;8.1;;;5.5;;
32451;SDS011;45528;52.102;5.242;2022-09-25T06:19:28;7.8;;;5.11;;
32451;SDS011;45528;52.102;5.242;2022-09-25T06:22:43;8.5;;;5.3;;
32451;SDS011;45528;52.102;5.242;2022-09-25T06:24:19;7.1;;;5.6;;
32451;SDS011;45528;52.102;5.242;2022-09-25T06:25:58;7.5;;;5.5;;
32451;SDS011;45528;52.102;5.242;2022-09-25T06:27:36;9.9;;;6.2;;
32451;SDS011;45528;52.102;5.242;2022-09-25T06:30:48;8.31;;;5.4;;
32451;SDS011;45528;52.102;5.242;2022-09-25T06:32:25;8.81;;;5.8;;
32451;SDS011;45528;52.102;5.242;2022-09-25T06:34:01;12.3;;;6.2;;
32451;SDS011;45528;52.102;5.242;2022-09-25T06:37:17;9.31;;;5.3;;
32451;SDS011;45528;52.102;5.242;2022-09-25T06:38:53;9.1;;;5.3;;
32451;SDS011;45528;52.102;5.242;2022-09-25T06:40:30;8.81;;;5.5;;
32451;SDS011;45528;52.102;5.242;2022-09-25T06:43:43;8.81;;;5.9;;
32451;SDS011;45528;52.102;5.242;2022-09-25T06:45:24;11.7;;;5.7;;
32451;SDS011;45528;52.102;5.242;2022-09-25T06:47:04;10.3;;;5.8;;
32451;SDS011;45528;52.102;5.242;2022-09-25T06:48:40;8.2;;;5.4;;
32451;SDS011;45528;52.102;5.242;2022-09-25T06:51:54;7.7;;;4.91;;
32451;SDS011;45528;52.102;5.242;2022-09-25T06:53:30;7.5;;;5.0;;
32451;SDS011;45528;52.102;5.242;2022-09-25T06:55:07;7.2;;;4.7;;
32451;SDS011;45528;52.102;5.242;2022-09-25T06:58:24;8.71;;;4.91;;
32451;SDS011;45528;52.102;5.242;2022-09-25T07:00:01;7.2;;;5.11;;
32451;SDS011;45528;52.102;5.242;2022-09-25T07:01:39;11.4;;;5.4;;
32451;SDS011;45528;52.102;5.242;2022-09-25T07:03:49;7.7;;;5.2;;
32451;SDS011;45528;52.102;5.242;2022-09-25T07:05:25;8.81;;;4.41;;
32451;SDS011;45528;52.102;5.242;2022-09-25T07:08:38;6.4;;;4.41;;
32451;SDS011;45528;52.102;5.242;2022-09-25T07:10:15;7.7;;;4.7;;
32451;SDS011;45528;52.102;5.242;2022-09-25T07:11:52;7.7;;;4.7;;
32451;SDS011;45528;52.102;5.242;2022-09-25T07:13:32;8.5;;;5.2;;
32451;SDS011;45528;52.102;5.242;2022-09-25T07:16:47;7.8;;;4.91;;
32451;SDS011;45528;52.102;5.242;2022-09-25T07:18:25;7.2;;;5.11;;
32451;SDS011;45528;52.102;5.242;2022-09-25T07:20:03;7.8;;;5.0;;
32451;SDS011;45528;52.102;5.242;2022-09-25T07:23:19;6.5;;;4.2;;
32451;SDS011;45528;52.102;5.242;2022-09-25T07:24:56;8.31;;;4.8;;
32451;SDS011;45528;52.102;5.242;2022-09-25T07:26:33;7.8;;;4.91;;
32451;SDS011;45528;52.102;5.242;2022-09-25T07:29:50;6.7;;;4.2;;
32451;SDS011;45528;52.102;5.242;2022-09-25T07:31:28;5.0;;;3.7;;
32451;SDS011;45528;52.102;5.242;2022-09-25T07:33:07;8.1;;;3.8;;
32451;SDS011;45528;52.102;5.242;2022-09-25T07:34:45;6.4;;;3.4;;
32451;SDS011;45528;52.102;5.242;2022-09-25T07:37:58;10.1;;;3.7;;
32451;SDS011;45528;52.102;5.242;2022-09-25T07:39:35;7.1;;;3.7;;
32451;SDS011;45528;52.102;5.242;2022-09-25T07:41:12;7.4;;;3.2;;
32451;SDS011;45528;52.102;5.242;2022-09-25T07:44:25;10.1;;;3.5;;
32451;SDS011;45528;52.102;5.242;2022-09-25T07:46:01;5.9;;;3.4;;
32451;SDS011;45528;52.102;5.242;2022-09-25T07:47:37;5.9;;;3.5;;
32451;SDS011;45528;52.102;5.242;2022-09-25T07:49:13;6.3;;;3.1;;
32451;SDS011;45528;52.102;5.242;2022-09-25T07:52:26;6.9;;;2.9;;
32451;SDS011;45528;52.102;5.242;2022-09-25T07:54:03;6.5;;;2.6;;
32451;SDS011;45528;52.102;5.242;2022-09-25T07:55:41;3.8;;;2.4;;
32451;SDS011;45528;52.102;5.242;2022-09-25T07:58:56;5.11;;;2.31;;
32451;SDS011;45528;52.102;5.242;2022-09-25T08:00:32;10.3;;;2.7;;
32451;SDS011;45528;52.102;5.242;2022-09-25T08:02:08;6.0;;;2.5;;
32451;SDS011;45528;52.102;5.242;2022-09-25T08:03:45;6.4;;;2.31;;
32451;SDS011;45528;52.102;5.242;2022-09-25T08:07:00;7.2;;;1.9;;
32451;SDS011;45528;52.102;5.242;2022-09-25T08:08:37;4.2;;;1.8;;
32451;SDS011;45528;52.102;5.242;2022-09-25T08:10:15;5.4;;;1.8;;
32451;SDS011;45528;52.102;5.242;2022-09-25T08:13:30;4.41;;;1.8;;
32451;SDS011;45528;52.102;5.242;2022-09-25T08:15:08;4.1;;;1.6;;
32451;SDS011;45528;52.102;5.242;2022-09-25T08:16:46;5.0;;;1.6;;
32451;SDS011;45528;52.102;5.242;2022-09-25T08:18:23;4.41;;;1.6;;
32451;SDS011;45528;52.102;5.242;2022-09-25T08:21:36;3.9;;;1.5;;
32451;SDS011;45528;52.102;5.242;2022-09-25T08:23:13;5.5;;;1.3;;
32451;SDS011;45528;52.102;5.242;2022-09-25T08:24:50;5.5;;;1.3;;
32451;SDS011;45528;52.102;5.242;2022-09-25T08:28:06;4.5;;;1.7;;
32451;SDS011;45528;52.102;5.242;2022-09-25T08:29:43;3.7;;;1.5;;
32451;SDS011;45528;52.102;5.242;2022-09-25T08:31:19;6.1;;;1.3;;
32451;SDS011;45528;52.102;5.242;2022-09-25T08:34:32;3.8;;;1.2;;
32451;SDS011;45528;52.102;5.242;2022-09-25T08:36:08;3.7;;;1.3;;
32451;SDS011;45528;52.102;5.242;2022-09-25T08:37:46;3.9;;;1.2;;
32451;SDS011;45528;52.102;5.242;2022-09-25T08:39:24;4.2;;;1.2;;
32451;SDS011;45528;52.102;5.242;2022-09-25T08:42:42;5.11;;;1.0;;
32451;SDS011;45528;52.102;5.242;2022-09-25T08:44:22;4.2;;;0.9;;
32451;SDS011;45528;52.102;5.242;2022-09-25T08:49:06;4.91;;;1.3;;
32451;SDS011;45528;52.102;5.242;2022-09-25T08:50:43;4.8;;;0.9;;
32451;SDS011;45528;52.102;5.242;2022-09-25T08:52:21;5.5;;;1.0;;
32451;SDS011;45528;52.102;5.242;2022-09-25T08:53:58;4.8;;;1.11;;
32451;SDS011;45528;52.102;5.242;2022-09-25T08:58:19;5.4;;;1.0;;
32451;SDS011;45528;52.102;5.242;2022-09-25T09:01:41;3.9;;;0.7;;
32451;SDS011;45528;52.102;5.242;2022-09-25T09:03:24;6.2;;;0.8;;
32451;SDS011;45528;52.102;5.242;2022-09-25T09:05:02;4.0;;;0.9;;
32451;SDS011;45528;52.102;5.242;2022-09-25T09:06:45;3.9;;;1.0;;
32451;SDS011;45528;52.102;5.242;2022-09-25T09:10:08;3.8;;;1.0;;
32451;SDS011;45528;52.102;5.242;2022-09-25T09:12:02;3.1;;;0.8;;
32451;SDS011;45528;52.102;5.242;2022-09-25T09:13:48;3.2;;;0.9;;
32451;SDS011;45528;52.102;5.242;2022-09-25T09:15:29;4.7;;;0.9;;
32451;SDS011;45528;52.102;5.242;2022-09-25T09:17:15;4.3;;;0.8;;
32451;SDS011;45528;52.102;5.242;2022-09-25T09:20:39;3.9;;;0.9;;
32451;SDS011;45528;52.102;5.242;2022-09-25T09:22:28;2.4;;;0.6;;
32451;SDS011;45528;52.102;5.242;2022-09-25T09:24:13;3.2;;;0.9;;
32451;SDS011;45528;52.102;5.242;2022-09-25T09:25:55;2.31;;;0.7;;
32451;SDS011;45528;52.102;5.242;2022-09-25T09:27:48;2.0;;;0.7;;
32451;SDS011;45528;52.102;5.242;2022-09-25T09:29:41;5.2;;;1.2;;
32451;SDS011;45528;52.102;5.242;2022-09-25T09:33:23;3.6;;;0.8;;
32451;SDS011;45528;52.102;5.242;2022-09-25T09:35:14;4.0;;;0.8;;
32451;SDS011;45528;52.102;5.242;2022-09-25T09:37:06;2.4;;;0.7;;
32451;SDS011;45528;52.102;5.242;2022-09-25T09:38:55;4.8;;;0.9;;
32451;SDS011;45528;52.102;5.242;2022-09-25T09:40:54;2.21;;;0.8;;
32451;SDS011;45528;52.102;5.242;2022-09-25T09:42:55;3.3;;;0.8;;
32451;SDS011;45528;52.102;5.242;2022-09-25T09:44:44;5.4;;;2.1;;
32451;SDS011;45528;52.102;5.242;2022-09-25T09:46:34;7.5;;;3.8;;
32451;SDS011;45528;52.102;5.242;2022-09-25T09:48:22;3.3;;;0.9;;
32451;SDS011;45528;52.102;5.242;2022-09-25T09:51:59;3.5;;;0.7;;
32451;SDS011;45528;52.102;5.242;2022-09-25T09:53:45;4.8;;;0.9;;
32451;SDS011;45528;52.102;5.242;2022-09-25T10:04:15;3.2;;;1.0;;
32451;SDS011;45528;52.102;5.242;2022-09-25T10:05:55;3.1;;;1.0;;
32451;SDS011;45528;52.102;5.242;2022-09-25T10:07:34;6.1;;;1.2;;
32451;SDS011;45528;52.102;5.242;2022-09-25T10:10:53;4.2;;;1.11;;
32451;SDS011;45528;52.102;5.242;2022-09-25T10:12:30;3.9;;;1.11;;
32451;SDS011;45528;52.102;5.242;2022-09-25T10:14:10;4.7;;;1.11;;
32451;SDS011;45528;52.102;5.242;2022-09-25T10:15:54;5.0;;;1.3;;
32451;SDS011;45528;52.102;5.242;2022-09-25T10:19:14;5.0;;;1.0;;
32451;SDS011;45528;52.102;5.242;2022-09-25T10:20:54;3.9;;;0.9;;
32451;SDS011;45528;52.102;5.242;2022-09-25T10:22:36;3.2;;;0.8;;
32451;SDS011;45528;52.102;5.242;2022-09-25T10:24:50;4.0;;;0.9;;
32451;SDS011;45528;52.102;5.242;2022-09-25T10:26:28;3.3;;;0.7;;
32451;SDS011;45528;52.102;5.242;2022-09-25T10:28:39;4.61;;;0.8;;
32451;SDS011;45528;52.102;5.242;2022-09-25T10:30:18;3.4;;;0.8;;
32451;SDS011;45528;52.102;5.242;2022-09-25T10:33:34;1.8;;;0.7;;
32451;SDS011;45528;52.102;5.242;2022-09-25T10:35:13;4.61;;;1.0;;
32451;SDS011;45528;52.102;5.242;2022-09-25T10:36:52;3.6;;;0.8;;
32451;SDS011;45528;52.102;5.242;2022-09-25T10:40:31;4.8;;;0.9;;
32451;SDS011;45528;52.102;5.242;2022-09-25T10:42:43;2.21;;;0.6;;
32451;SDS011;45528;52.102;5.242;2022-09-25T10:44:22;1.5;;;0.7;;
32451;SDS011;45528;52.102;5.242;2022-09-25T10:46:06;3.7;;;0.6;;
32451;SDS011;45528;52.102;5.242;2022-09-25T10:50:38;1.9;;;0.6;;
32451;SDS011;45528;52.102;5.242;2022-09-25T10:52:15;2.6;;;0.6;;
32451;SDS011;45528;52.102;5.242;2022-09-25T10:54:09;2.0;;;0.8;;
32451;SDS011;45528;52.102;5.242;2022-09-25T10:55:50;2.9;;;1.11;;
32451;SDS011;45528;52.102;5.242;2022-09-25T10:57:33;3.2;;;0.7;;
32451;SDS011;45528;52.102;5.242;2022-09-25T11:00:56;3.5;;;0.6;;
32451;SDS011;45528;52.102;5.242;2022-09-25T11:02:35;3.8;;;0.6;;
32451;SDS011;45528;52.102;5.242;2022-09-25T11:04:16;3.1;;;0.6;;
32451;SDS011;45528;52.102;5.242;2022-09-25T11:05:57;2.8;;;0.6;;
32451;SDS011;45528;52.102;5.242;2022-09-25T11:09:14;2.9;;;0.6;;
32451;SDS011;45528;52.102;5.242;2022-09-25T11:10:56;2.31;;;0.5;;
32451;SDS011;45528;52.102;5.242;2022-09-25T11:12:34;1.6;;;0.5;;
32451;SDS011;45528;52.102;5.242;2022-09-25T11:14:18;0.5;;;0.3;;
32451;SDS011;45528;52.102;5.242;2022-09-25T11:17:37;3.7;;;0.4;;
32451;SDS011;45528;52.102;5.242;2022-09-25T11:19:18;2.31;;;0.5;;
32451;SDS011;45528;52.102;5.242;2022-09-25T11:21:02;2.6;;;0.6;;
32451;SDS011;45528;52.102;5.242;2022-09-25T11:22:42;2.7;;;0.5;;
32451;SDS011;45528;52.102;5.242;2022-09-25T11:26:11;1.4;;;0.4;;
32451;SDS011;45528;52.102;5.242;2022-09-25T11:27:56;1.7;;;0.5;;
32451;SDS011;45528;52.102;5.242;2022-09-25T11:29:40;1.4;;;0.5;;
32451;SDS011;45528;52.102;5.242;2022-09-25T11:31:24;2.31;;;0.4;;
32451;SDS011;45528;52.102;5.242;2022-09-25T11:33:09;1.8;;;0.6;;
32451;SDS011;45528;52.102;5.242;2022-09-25T11:36:55;1.4;;;0.5;;
32451;SDS011;45528;52.102;5.242;2022-09-25T11:41:36;1.6;;;0.6;;
32451;SDS011;45528;52.102;5.242;2022-09-25T11:45:11;2.1;;;0.5;;
32451;SDS011;45528;52.102;5.242;2022-09-25T11:46:56;1.5;;;0.4;;
32451;SDS011;45528;52.102;5.242;2022-09-25T11:48:42;3.3;;;0.5;;
32451;SDS011;45528;52.102;5.242;2022-09-25T11:50:33;1.3;;;0.4;;
32451;SDS011;45528;52.102;5.242;2022-09-25T11:52:25;1.7;;;0.5;;
32451;SDS011;45528;52.102;5.242;2022-09-25T11:54:12;2.1;;;0.5;;
32451;SDS011;45528;52.102;5.242;2022-09-25T11:56:05;1.6;;;0.4;;
32451;SDS011;45528;52.102;5.242;2022-09-25T11:59:47;1.2;;;0.4;;
32451;SDS011;45528;52.102;5.242;2022-09-25T12:01:44;1.7;;;0.5;;
32451;SDS011;45528;52.102;5.242;2022-09-25T12:03:31;1.7;;;0.5;;
32451;SDS011;45528;52.102;5.242;2022-09-25T12:05:32;2.21;;;0.4;;
32451;SDS011;45528;52.102;5.242;2022-09-25T12:07:26;2.31;;;0.4;;
32451;SDS011;45528;52.102;5.242;2022-09-25T12:09:21;2.0;;;0.4;;
32451;SDS011;45528;52.102;5.242;2022-09-25T12:11:14;1.5;;;0.4;;
32451;SDS011;45528;52.102;5.242;2022-09-25T12:13:10;2.5;;;0.4;;
32451;SDS011;45528;52.102;5.242;2022-09-25T12:15:00;1.5;;;0.4;;
32451;SDS011;45528;52.102;5.242;2022-09-25T12:18:41;1.8;;;0.6;;
32451;SDS011;45528;52.102;5.242;2022-09-25T12:20:31;2.0;;;0.3;;
32451;SDS011;45528;52.102;5.242;2022-09-25T12:22:15;0.9;;;0.4;;
32451;SDS011;45528;52.102;5.242;2022-09-25T12:24:03;2.21;;;0.5;;
32451;SDS011;45528;52.102;5.242;2022-09-25T12:25:56;1.4;;;0.4;;
32451;SDS011;45528;52.102;5.242;2022-09-25T12:27:48;1.6;;;0.4;;
32451;SDS011;45528;52.102;5.242;2022-09-25T12:29:36;1.8;;;0.5;;
32451;SDS011;45528;52.102;5.242;2022-09-25T12:33:23;3.7;;;0.4;;
32451;SDS011;45528;52.102;5.242;2022-09-25T12:35:14;2.21;;;0.4;;
32451;SDS011;45528;52.102;5.242;2022-09-25T12:37:05;1.4;;;0.3;;
32451;SDS011;45528;52.102;5.242;2022-09-25T12:38:54;1.8;;;0.4;;
32451;SDS011;45528;52.102;5.242;2022-09-25T12:40:40;2.6;;;0.5;;
32451;SDS011;45528;52.102;5.242;2022-09-25T12:42:23;2.31;;;0.4;;
32451;SDS011;45528;52.102;5.242;2022-09-25T12:44:16;2.0;;;0.4;;
32451;SDS011;45528;52.102;5.242;2022-09-25T12:47:57;2.8;;;0.5;;
32451;SDS011;45528;52.102;5.242;2022-09-25T12:49:41;1.3;;;0.4;;
32451;SDS011;45528;52.102;5.242;2022-09-25T12:51:23;1.7;;;0.4;;
32451;SDS011;45528;52.102;5.242;2022-09-25T12:53:10;1.9;;;0.6;;
32451;SDS011;45528;52.102;5.242;2022-09-25T12:55:03;1.5;;;0.4;;
32451;SDS011;45528;52.102;5.242;2022-09-25T12:56:46;3.5;;;0.7;;
32451;SDS011;45528;52.102;5.242;2022-09-25T13:00:22;2.7;;;0.6;;
32451;SDS011;45528;52.102;5.242;2022-09-25T13:02:01;5.2;;;0.8;;
32451;SDS011;45528;52.102;5.242;2022-09-25T13:03:46;2.9;;;0.7;;
32451;SDS011;45528;52.102;5.242;2022-09-25T13:05:39;3.1;;;0.6;;
32451;SDS011;45528;52.102;5.242;2022-09-25T13:07:28;1.6;;;0.5;;
32451;SDS011;45528;52.102;5.242;2022-09-25T13:11:05;1.3;;;0.6;;
32451;SDS011;45528;52.102;5.242;2022-09-25T13:12:53;2.31;;;0.8;;
32451;SDS011;45528;52.102;5.242;2022-09-25T13:14:34;2.0;;;0.7;;
32451;SDS011;45528;52.102;5.242;2022-09-25T13:16:16;1.11;;;0.5;;
32451;SDS011;45528;52.102;5.242;2022-09-25T13:17:52;2.7;;;0.6;;